Time;durP1;ratioP1;P1;durP2;ratioP2;P2;SDS_P1;SDS_P2;PMS_P1;PMS_P2;Temp;Humidity;BMP_temperature;BMP_pressure;BME280_temperature;BME280_humidity;BME280_pressure;Samples;Min_cycle;Max_cycle;Signal;HPM_P1;HPM_P2
2023/10/26 00:05:26;;;;;;;0.93;0.70;;;;;;;11.34;100.00;96455.19;15272184;19;20025;-48
2023/10/26 00:10:51;;;;;;;2.10;0.70;;;;;;;11.35;100.00;96459.53;15272154;19;20026;-48
2023/10/26 00:16:16;;;;;;;2.00;0.70;;;;;;;11.35;100.00;96452.25;15271614;19;20018;-51
2023/10/26 00:21:43;;;;;;;0.82;0.80;;;;;;;11.36;100.00;96453.09;15270471;19;20027;-50
2023/10/26 00:27:08;;;;;;;0.70;0.70;;;;;;;11.34;100.00;96455.19;15270749;19;20019;-48
2023/10/26 00:32:33;;;;;;;1.20;0.90;;;;;;;11.31;100.00;96453.75;15271719;19;20010;-49
2023/10/26 00:38:02;;;;;;;1.23;0.90;;;;;;;11.28;100.00;96456.88;15270245;19;20052;-51
2023/10/26 00:43:26;;;;;;;1.25;0.80;;;;;;;11.27;100.00;96460.59;15271892;19;20039;-49
2023/10/26 00:48:53;;;;;;;1.30;0.93;;;;;;;11.26;100.00;96475.13;15268894;19;20018;-48
2023/10/26 00:54:22;;;;;;;1.13;0.90;;;;;;;11.23;100.00;96460.22;15263986;19;20423;-48
2023/10/26 00:59:48;;;;;;;1.58;0.80;;;;;;;11.25;100.00;96474.31;15268963;19;20085;-52
2023/10/26 01:05:14;;;;;;;1.45;0.70;;;;;;;11.24;100.00;96469.94;15267283;19;20074;-51
2023/10/26 01:10:48;;;;;;;1.20;0.90;;;;;;;11.23;100.00;96471.00;15266315;19;20057;-50
2023/10/26 01:16:15;;;;;;;0.93;0.80;;;;;;;11.22;100.00;96480.13;15265293;19;20020;-50
2023/10/26 01:21:56;;;;;;;1.00;0.80;;;;;;;11.22;100.00;96471.22;15265543;19;20452;-53
2023/10/26 01:27:27;;;;;;;1.38;0.70;;;;;;;11.19;100.00;96475.16;15265382;19;20031;-52
2023/10/26 01:32:52;;;;;;;1.80;0.82;;;;;;;11.18;100.00;96486.97;15267444;19;20026;-50
2023/10/26 01:38:19;;;;;;;0.70;0.70;;;;;;;11.18;100.00;96489.66;15266540;19;20078;-48
2023/10/26 01:43:44;;;;;;;0.95;0.50;;;;;;;11.19;100.00;96491.31;15268300;19;20015;-49
2023/10/26 01:49:10;;;;;;;0.93;0.60;;;;;;;11.21;100.00;96500.03;15265951;19;20697;-47
2023/10/26 01:54:37;;;;;;;0.80;0.43;;;;;;;11.24;100.00;96498.75;15256543;19;20014;-49
2023/10/26 02:00:05;;;;;;;0.82;0.50;;;;;;;11.23;100.00;96494.44;15265700;19;20082;-52
2023/10/26 02:05:23;;;;;;;0.55;0.55;;;;;;;11.24;100.00;96505.00;15262364;19;20086;-54
2023/10/26 02:10:57;;;;;;;0.30;0.30;;;;;;;11.30;100.00;96505.16;15261924;19;20074;-50
2023/10/26 02:16:22;;;;;;;0.70;0.45;;;;;;;11.36;100.00;96499.75;15264384;19;20525;-52
2023/10/26 02:21:46;;;;;;;0.43;0.30;;;;;;;11.36;100.00;96507.84;15264991;19;20040;-50
2023/10/26 02:27:13;;;;;;;0.32;0.20;;;;;;;11.28;100.00;96504.56;15264287;19;20602;-50
2023/10/26 02:32:38;;;;;;;0.32;0.10;;;;;;;11.24;100.00;96514.94;15279291;19;20081;-52
2023/10/26 02:38:03;;;;;;;0.10;0.10;;;;;;;11.17;100.00;96511.44;15277711;19;20018;-52
2023/10/26 02:43:30;;;;;;;0.52;0.17;;;;;;;11.13;100.00;96515.59;15279501;19;20025;-50
2023/10/26 02:48:55;;;;;;;0.10;0.10;;;;;;;11.06;100.00;96508.38;15274662;19;20082;-51
2023/10/26 02:54:20;;;;;;;1.13;0.15;;;;;;;11.01;100.00;96507.34;15274786;19;20495;-57
2023/10/26 02:59:47;;;;;;;0.10;0.10;;;;;;;10.96;100.00;96499.91;15269280;19;20021;-58
2023/10/26 03:05:13;;;;;;;0.10;0.10;;;;;;;10.89;100.00;96499.06;15276953;19;20022;-57
2023/10/26 03:10:38;;;;;;;1.30;0.10;;;;;;;10.85;100.00;96495.97;15276853;19;20028;-54
2023/10/26 03:16:05;;;;;;;0.57;0.20;;;;;;;10.82;100.00;96507.16;15276162;19;20014;-52
2023/10/26 03:21:30;;;;;;;0.30;0.15;;;;;;;10.79;100.00;96505.72;15275714;19;20039;-57
2023/10/26 03:26:55;;;;;;;0.10;0.10;;;;;;;10.76;100.00;96508.00;15274137;19;20014;-55
2023/10/26 03:32:23;;;;;;;0.82;0.10;;;;;;;10.70;100.00;96509.69;15263650;19;20361;-53
2023/10/26 03:37:48;;;;;;;0.10;0.10;;;;;;;10.62;100.00;96523.38;15272907;19;20078;-55
2023/10/26 03:43:17;;;;;;;1.65;0.10;;;;;;;10.54;100.00;96520.88;15275710;19;20035;-54
2023/10/26 03:48:44;;;;;;;1.10;0.20;;;;;;;10.47;100.00;96524.41;15272625;19;20025;-57
2023/10/26 03:54:09;;;;;;;0.47;0.10;;;;;;;10.41;100.00;96514.44;15273833;19;20090;-58
2023/10/26 03:59:33;;;;;;;1.13;0.10;;;;;;;10.34;100.00;96500.16;15270239;19;20019;-52
2023/10/26 04:05:01;;;;;;;0.57;0.10;;;;;;;10.27;100.00;96488.56;15268751;19;20022;-53
2023/10/26 04:10:32;;;;;;;0.05;0.00;;;;;;;10.21;100.00;96492.06;15269046;19;20020;-50
2023/10/26 04:16:01;;;;;;;1.73;0.10;;;;;;;10.13;100.00;96493.94;15266981;19;20488;-55
2023/10/26 04:21:29;;;;;;;0.10;0.10;;;;;;;10.07;100.00;96481.28;15269533;19;20618;-47
2023/10/26 04:26:55;;;;;;;0.00;0.00;;;;;;;10.06;100.00;96493.09;15267651;19;20029;-51
2023/10/26 04:32:19;;;;;;;1.58;0.10;;;;;;;10.04;100.00;96489.81;15266970;19;20017;-48
2023/10/26 04:37:47;;;;;;;0.60;0.10;;;;;;;10.03;100.00;96490.84;15265207;19;20011;-51
2023/10/26 04:43:12;;;;;;;0.10;0.10;;;;;;;10.01;100.00;96491.00;15270673;19;20467;-48
2023/10/26 04:48:31;;;;;;;0.20;0.10;;;;;;;10.00;100.00;96488.53;15268337;19;20014;-52
2023/10/26 04:53:59;;;;;;;0.10;0.10;;;;;;;10.00;100.00;96493.94;15264543;19;20472;-46
2023/10/26 04:59:25;;;;;;;0.15;0.10;;;;;;;9.97;100.00;96492.47;15269478;19;20094;-54
2023/10/26 05:04:50;;;;;;;0.00;0.00;;;;;;;9.97;100.00;96487.09;15270495;19;20066;-49
2023/10/26 05:10:18;;;;;;;0.40;0.10;;;;;;;9.96;100.00;96490.81;15259039;19;20014;-52
2023/10/26 05:15:45;;;;;;;0.40;0.28;;;;;;;9.96;100.00;96492.66;15265545;19;20023;-51
2023/10/26 05:21:09;;;;;;;0.22;0.22;;;;;;;9.94;100.00;96500.09;15267926;19;20035;-48
2023/10/26 05:26:36;;;;;;;0.93;0.22;;;;;;;9.94;100.00;96502.78;15263384;19;20028;-51
2023/10/26 05:32:09;;;;;;;1.60;0.20;;;;;;;9.92;100.00;96502.19;15265615;19;20019;-51
2023/10/26 05:37:35;;;;;;;0.13;0.13;;;;;;;9.92;100.00;96512.97;15262786;19;20017;-51
2023/10/26 05:43:03;;;;;;;0.82;0.20;;;;;;;9.92;100.00;96513.78;15262324;19;20047;-53
2023/10/26 05:48:29;;;;;;;0.28;0.17;;;;;;;9.91;100.00;96516.69;15263419;19;20481;-48
2023/10/26 05:53:54;;;;;;;0.10;0.10;;;;;;;9.92;100.00;96521.03;15262501;19;20483;-50
2023/10/26 05:59:21;;;;;;;0.50;0.20;;;;;;;9.91;100.00;96522.88;15265376;19;20444;-50
2023/10/26 06:04:47;;;;;;;1.00;0.30;;;;;;;9.93;100.00;96536.13;15279913;19;20363;-51
2023/10/26 06:10:14;;;;;;;0.30;0.30;;;;;;;9.94;100.00;96537.75;15276209;19;20027;-55
2023/10/26 06:15:45;;;;;;;0.40;0.40;;;;;;;9.96;100.00;96533.00;15270403;19;20026;-49
2023/10/26 06:21:10;;;;;;;0.65;0.40;;;;;;;9.98;100.00;96549.78;15278323;19;20024;-48
2023/10/26 06:26:35;;;;;;;0.55;0.50;;;;;;;9.99;100.00;96562.19;15276217;19;20015;-53
2023/10/26 06:32:02;;;;;;;0.50;0.50;;;;;;;10.00;100.00;96567.38;15283200;19;20094;-52
2023/10/26 06:37:28;;;;;;;1.85;0.50;;;;;;;10.00;100.00;96569.25;15275854;19;20015;-53
2023/10/26 06:42:54;;;;;;;0.68;0.45;;;;;;;10.01;100.00;96571.72;15281384;19;20015;-51
2023/10/26 06:48:21;;;;;;;0.52;0.50;;;;;;;10.02;100.00;96568.00;15271671;19;20031;-51
2023/10/26 06:53:46;;;;;;;0.40;0.40;;;;;;;10.04;100.00;96570.50;15279145;19;20077;-49
2023/10/26 06:59:10;;;;;;;2.15;0.60;;;;;;;10.07;100.00;96577.34;15275083;19;20035;-50
2023/10/26 07:04:38;;;;;;;0.65;0.65;;;;;;;10.08;100.00;96581.69;15276717;19;20023;-50
2023/10/26 07:10:15;;;;;;;0.85;0.80;;;;;;;10.09;100.00;96584.16;15272540;19;20018;-50
2023/10/26 07:15:40;;;;;;;1.70;0.80;;;;;;;10.09;100.00;96603.00;15272824;19;20024;-52
2023/10/26 07:21:07;;;;;;;1.25;0.80;;;;;;;10.11;100.00;96600.13;15272444;19;20022;-48
2023/10/26 07:26:35;;;;;;;3.25;0.90;;;;;;;10.14;100.00;96610.44;15275201;19;20044;-51
2023/10/26 07:32:00;;;;;;;0.80;0.80;;;;;;;10.20;100.00;96608.81;15276021;19;20018;-51
2023/10/26 07:37:27;;;;;;;0.70;0.70;;;;;;;10.26;100.00;96626.84;15271254;19;20086;-53
2023/10/26 07:42:53;;;;;;;0.40;0.40;;;;;;;10.28;100.00;96628.28;15277468;19;20015;-49
2023/10/26 07:48:19;;;;;;;0.30;0.30;;;;;;;10.30;100.00;96628.06;15273461;19;20726;-54
2023/10/26 07:53:46;;;;;;;0.35;0.30;;;;;;;10.31;100.00;96627.03;15270626;19;20034;-54
2023/10/26 07:59:11;;;;;;;0.90;0.30;;;;;;;10.31;100.00;96625.19;15271293;19;20602;-54
2023/10/26 08:04:35;;;;;;;1.98;0.60;;;;;;;10.32;100.00;96617.94;15275891;19;20073;-50
2023/10/26 08:10:02;;;;;;;0.75;0.70;;;;;;;10.32;100.00;96623.31;15290274;19;20039;-52
2023/10/26 08:15:28;;;;;;;1.38;0.80;;;;;;;10.33;100.00;96627.69;15284936;19;20018;-55
2023/10/26 08:21:13;;;;;;;0.77;0.77;;;;;;;10.32;100.00;96621.47;15275585;19;20018;-54
2023/10/26 08:26:40;;;;;;;0.80;0.80;;;;;;;10.38;100.00;96636.00;15269402;19;20037;-55
2023/10/26 08:32:05;;;;;;;1.85;0.82;;;;;;;10.43;100.00;96633.53;15274003;19;20027;-54
2023/10/26 08:37:30;;;;;;;1.63;0.90;;;;;;;10.48;100.00;96643.66;15270331;19;20027;-53
2023/10/26 08:43:00;;;;;;;1.10;1.00;;;;;;;10.52;100.00;96646.81;15274238;19;20025;-52
2023/10/26 08:48:26;;;;;;;2.22;0.90;;;;;;;10.61;100.00;96659.03;15271104;19;20011;-55
2023/10/26 08:53:52;;;;;;;0.98;0.77;;;;;;;10.69;100.00;96652.63;15266563;19;20007;-52
2023/10/26 08:59:19;;;;;;;1.80;0.80;;;;;;;10.73;100.00;96654.69;15268136;19;20041;-54
2023/10/26 09:05:07;;;;;;;0.98;0.70;;;;;;;10.74;100.00;96659.06;15268014;19;20082;-49
2023/10/26 09:10:39;;;;;;;0.80;0.80;;;;;;;10.76;100.00;96648.88;15267911;19;20018;-51
2023/10/26 09:16:07;;;;;;;3.50;0.90;;;;;;;10.78;100.00;96640.63;15266573;19;20813;-54
2023/10/26 09:21:31;;;;;;;1.00;0.90;;;;;;;10.78;100.00;96640.63;15270471;19;20042;-51
2023/10/26 09:26:57;;;;;;;0.52;0.45;;;;;;;10.70;100.00;96641.63;15263686;19;20013;-53
2023/10/26 09:32:24;;;;;;;0.73;0.30;;;;;;;10.62;100.00;96625.69;15270327;19;20070;-50
2023/10/26 09:37:53;;;;;;;1.40;0.20;;;;;;;10.53;100.00;96600.81;15275409;19;20018;-50
2023/10/26 09:43:18;;;;;;;0.82;0.30;;;;;;;10.40;100.00;96598.97;15283774;19;20032;-52
2023/10/26 09:48:46;;;;;;;0.30;0.25;;;;;;;10.39;100.00;96574.91;15279971;19;20367;-55
2023/10/26 09:54:13;;;;;;;0.28;0.25;;;;;;;10.40;100.00;96585.50;15282220;19;20014;-49
2023/10/26 09:59:39;;;;;;;0.60;0.20;;;;;;;10.46;100.00;96578.47;15273564;19;20019;-53
2023/10/26 10:05:06;;;;;;;0.70;0.40;;;;;;;10.55;100.00;96581.75;15282356;19;20031;-52
2023/10/26 10:10:32;;;;;;;0.77;0.40;;;;;;;10.60;100.00;96576.59;15280254;19;20010;-49
2023/10/26 10:15:56;;;;;;;0.90;0.30;;;;;;;10.65;100.00;96584.88;15277762;19;20010;-50
2023/10/26 10:21:39;;;;;;;0.38;0.30;;;;;;;10.68;100.00;96568.31;15283792;19;20090;-47
2023/10/26 10:27:21;;;;;;;0.75;0.40;;;;;;;10.69;100.00;96575.34;15276096;19;20743;-50
2023/10/26 10:32:53;;;;;;;0.20;0.20;;;;;;;10.63;100.00;96585.09;15276770;19;20282;-56
2023/10/26 10:38:29;;;;;;;0.30;0.30;;;;;;;10.57;100.00;96590.47;15275893;19;20359;-53
2023/10/26 10:43:54;;;;;;;0.50;0.50;;;;;;;10.50;100.00;96586.94;15281008;19;20014;-50
2023/10/26 10:49:20;;;;;;;0.70;0.40;;;;;;;10.49;100.00;96586.09;15275252;19;20038;-53
2023/10/26 10:54:53;;;;;;;0.85;0.40;;;;;;;10.42;100.00;96588.78;15279810;19;20013;-52
2023/10/26 11:00:24;;;;;;;2.60;0.40;;;;;;;10.44;100.00;96594.81;15276011;19;20018;-54
2023/10/26 11:05:49;;;;;;;0.40;0.40;;;;;;;10.43;100.00;96593.16;15274531;19;20020;-53
2023/10/26 11:11:16;;;;;;;2.30;0.40;;;;;;;10.44;100.00;96600.19;15276302;19;20066;-50
2023/10/26 11:16:44;;;;;;;0.57;0.50;;;;;;;10.50;100.00;96600.41;15274270;19;20010;-54
2023/10/26 11:22:08;;;;;;;0.95;0.52;;;;;;;10.54;100.00;96609.72;15278399;19;20018;-52
2023/10/26 11:27:39;;;;;;;0.45;0.40;;;;;;;10.53;100.00;96605.38;15274122;19;20028;-54
2023/10/26 11:33:03;;;;;;;0.40;0.40;;;;;;;10.55;100.00;96603.31;15274981;19;20010;-54
2023/10/26 11:38:28;;;;;;;0.65;0.40;;;;;;;10.54;100.00;96596.25;15268106;19;20310;-49
2023/10/26 11:43:55;;;;;;;0.50;0.50;;;;;;;10.52;100.00;96587.59;15276856;19;20093;-53
2023/10/26 11:49:22;;;;;;;0.30;0.30;;;;;;;10.55;100.00;96562.91;15273880;19;20015;-50
2023/10/26 11:55:00;;;;;;;0.30;0.30;;;;;;;10.58;100.00;96555.28;15275273;19;20094;-49
2023/10/26 12:00:29;;;;;;;0.47;0.30;;;;;;;10.64;100.00;96553.63;15275987;19;20014;-50
2023/10/26 12:05:53;;;;;;;0.95;0.40;;;;;;;10.73;100.00;96556.91;15274344;19;20020;-49
2023/10/26 12:11:24;;;;;;;0.85;0.57;;;;;;;10.83;100.00;96546.53;15267356;19;20027;-51
2023/10/26 12:16:53;;;;;;;2.13;0.50;;;;;;;10.87;100.00;96546.97;15267329;19;20346;-53
2023/10/26 12:22:19;;;;;;;0.40;0.40;;;;;;;10.91;100.00;96542.78;15274955;19;20014;-54
2023/10/26 12:27:45;;;;;;;0.75;0.40;;;;;;;10.97;100.00;96533.88;15271145;19;20081;-55
2023/10/26 12:33:33;;;;;;;1.83;0.40;;;;;;;11.03;100.00;96543.81;15273624;19;20006;-52
2023/10/26 12:38:59;;;;;;;1.95;0.40;;;;;;;11.07;100.00;96542.34;15269249;19;20014;-49
2023/10/26 12:44:24;;;;;;;1.13;0.40;;;;;;;11.13;100.00;96540.69;15272583;19;20015;-55
2023/10/26 12:49:52;;;;;;;0.45;0.45;;;;;;;11.19;100.00;96541.72;15269749;19;20379;-54
2023/10/26 12:55:17;;;;;;;1.30;0.70;;;;;;;11.28;100.00;96545.81;15269216;19;20043;-50
2023/10/26 13:00:48;;;;;;;0.98;0.60;;;;;;;11.34;100.00;96552.22;15272144;19;20035;-50
2023/10/26 13:06:15;;;;;;;1.23;0.50;;;;;;;11.41;100.00;96543.09;15270100;19;20021;-51
2023/10/26 13:11:47;;;;;;;0.85;0.50;;;;;;;11.37;100.00;96541.84;15262125;19;20351;-55
2023/10/26 13:17:12;;;;;;;0.50;0.50;;;;;;;11.35;100.00;96535.84;15264212;19;20094;-54
2023/10/26 13:22:39;;;;;;;1.85;0.50;;;;;;;11.36;100.00;96544.75;15268075;19;20360;-55
2023/10/26 13:28:04;;;;;;;2.33;0.50;;;;;;;11.41;100.00;96558.41;15262391;19;20094;-50
2023/10/26 13:33:28;;;;;;;0.60;0.60;;;;;;;11.41;100.00;96559.25;15268102;19;20030;-53
2023/10/26 13:38:56;;;;;;;3.30;0.70;;;;;;;11.40;100.00;96563.00;15265238;19;20074;-54
2023/10/26 13:44:21;;;;;;;3.10;0.55;;;;;;;11.39;100.00;96571.31;15264494;19;20615;-51
2023/10/26 13:49:46;;;;;;;1.05;0.68;;;;;;;11.39;100.00;96574.81;15264475;19;20035;-56
2023/10/26 13:55:14;;;;;;;0.95;0.80;;;;;;;11.45;100.00;96575.03;15264096;19;20018;-52
2023/10/26 14:00:39;;;;;;;1.35;0.70;;;;;;;11.54;100.00;96568.34;15266672;19;20022;-50
2023/10/26 14:06:03;;;;;;;1.00;0.70;;;;;;;11.60;100.00;96561.28;15264881;19;20078;-51
2023/10/26 14:11:37;;;;;;;1.88;0.80;;;;;;;11.61;100.00;96550.25;15262611;19;20022;-53
2023/10/26 14:17:03;;;;;;;0.70;0.70;;;;;;;11.54;100.00;96547.59;15256381;19;20010;-54
2023/10/26 14:22:27;;;;;;;1.27;0.80;;;;;;;11.44;100.00;96541.00;15272843;19;20010;-53
2023/10/26 14:27:56;;;;;;;1.30;0.80;;;;;;;11.36;100.00;96534.78;15275899;19;20010;-50
2023/10/26 14:33:21;;;;;;;0.70;0.70;;;;;;;11.32;100.00;96536.28;15279445;19;20011;-52
2023/10/26 14:38:46;;;;;;;1.67;0.70;;;;;;;11.26;100.00;96777.00;15275565;19;20029;-50
2023/10/26 14:44:13;;;;;;;1.15;0.68;;;;;;;11.23;100.00;96772.88;15278973;19;20011;-50
2023/10/26 14:49:39;;;;;;;1.25;0.82;;;;;;;11.19;100.00;96654.91;15269730;19;20020;-53
2023/10/26 14:55:03;;;;;;;0.60;0.60;;;;;;;11.17;100.00;96563.47;15278057;19;20353;-52
2023/10/26 15:00:32;;;;;;;1.88;1.10;;;;;;;11.13;100.00;96529.06;15279459;19;20031;-51
2023/10/26 15:05:56;;;;;;;1.77;1.10;;;;;;;11.04;100.00;96510.44;15277188;19;20010;-51
2023/10/26 15:11:21;;;;;;;3.15;1.20;;;;;;;10.97;100.00;96498.03;15276140;19;20037;-53
2023/10/26 15:17:08;;;;;;;1.10;1.00;;;;;;;10.88;100.00;96483.94;15274131;19;20054;-50
2023/10/26 15:22:33;;;;;;;1.33;1.15;;;;;;;10.85;100.00;96489.78;15272882;19;20022;-53
2023/10/26 15:27:59;;;;;;;1.30;1.20;;;;;;;10.82;100.00;96484.81;15274332;19;20018;-50
2023/10/26 15:33:27;;;;;;;2.30;1.20;;;;;;;10.76;100.00;96476.50;15275203;19;20078;-53
2023/10/26 15:38:51;;;;;;;3.28;1.30;;;;;;;10.70;100.00;96482.75;15271730;19;20025;-51
2023/10/26 15:44:17;;;;;;;1.23;1.13;;;;;;;10.67;100.00;96491.25;14766227;19;10000805;-55
2023/10/26 15:49:45;;;;;;;1.58;1.48;;;;;;;10.64;100.00;96500.56;15272145;19;20098;-50
2023/10/26 15:55:11;;;;;;;2.38;1.20;;;;;;;10.59;100.00;96508.44;15269598;19;20015;-55
2023/10/26 16:00:39;;;;;;;1.38;1.27;;;;;;;10.55;100.00;96526.06;15276519;19;20015;-52
2023/10/26 16:06:11;;;;;;;1.40;1.30;;;;;;;10.54;100.00;96527.09;15272681;19;20035;-50
2023/10/26 16:11:38;;;;;;;1.38;1.27;;;;;;;10.53;100.00;96540.75;15272122;19;20378;-50
2023/10/26 16:17:03;;;;;;;1.73;1.30;;;;;;;10.48;100.00;96515.31;15270966;19;20031;-50
2023/10/26 16:22:30;;;;;;;1.58;1.40;;;;;;;10.50;100.00;96530.41;15273087;19;20409;-56
2023/10/26 16:27:55;;;;;;;2.00;1.45;;;;;;;10.48;100.00;96528.75;15263905;19;20070;-50
2023/10/26 16:33:21;;;;;;;2.13;1.30;;;;;;;10.50;100.00;96531.22;15272616;19;20051;-52
2023/10/26 16:38:50;;;;;;;1.35;1.25;;;;;;;10.47;100.00;96537.88;15269651;19;20025;-49
2023/10/26 16:44:15;;;;;;;2.17;1.50;;;;;;;10.48;100.00;96546.75;15267166;19;20024;-52
2023/10/26 16:49:40;;;;;;;2.00;1.35;;;;;;;10.48;100.00;96544.06;15266412;19;20035;-52
2023/10/26 16:55:07;;;;;;;1.80;1.40;;;;;;;10.51;100.00;96537.47;15270861;19;20016;-53
2023/10/26 17:00:32;;;;;;;1.60;1.50;;;;;;;10.51;100.00;96532.88;15264758;19;20028;-51
2023/10/26 17:05:56;;;;;;;3.35;1.65;;;;;;;10.50;100.00;96531.22;15268222;19;20045;-49
2023/10/26 17:11:30;;;;;;;1.92;1.38;;;;;;;10.46;100.00;96519.25;15267446;19;20086;-49
2023/10/26 17:16:55;;;;;;;2.15;1.70;;;;;;;10.41;100.00;96532.47;15265805;19;20090;-49
2023/10/26 17:22:21;;;;;;;1.65;1.55;;;;;;;10.36;100.00;96524.16;15269069;19;20018;-52
2023/10/26 17:27:50;;;;;;;1.50;1.30;;;;;;;10.27;100.00;96521.69;15264681;19;20086;-49
2023/10/26 17:33:17;;;;;;;2.03;1.70;;;;;;;10.18;100.00;96523.72;15263139;19;20073;-48
2023/10/26 17:38:42;;;;;;;3.20;1.65;;;;;;;10.08;100.00;96523.31;15264740;19;20824;-55
2023/10/26 17:44:09;;;;;;;2.42;1.70;;;;;;;9.99;100.00;96536.16;15266831;19;20418;-50
2023/10/26 17:49:35;;;;;;;2.58;1.95;;;;;;;9.98;100.00;96522.88;15246579;19;20494;-52
2023/10/26 17:54:59;;;;;;;2.70;2.08;;;;;;;9.96;100.00;96536.56;15266465;19;20021;-51
2023/10/26 18:00:27;;;;;;;3.28;2.20;;;;;;;9.96;100.00;96519.56;15271434;19;20026;-55
2023/10/26 18:05:52;;;;;;;2.85;2.03;;;;;;;9.98;100.00;96517.50;15275486;19;20082;-60
2023/10/26 18:11:24;;;;;;;3.40;2.00;;;;;;;9.94;100.00;96516.25;15275127;19;20102;-49
2023/10/26 18:16:45;;;;;;;2.58;1.90;;;;;;;9.91;100.00;96525.56;15278418;19;20035;-48
2023/10/26 18:22:13;;;;;;;1.88;1.73;;;;;;;9.89;100.00;96526.81;15280590;19;20018;-49
2023/10/26 18:27:37;;;;;;;2.00;1.88;;;;;;;9.88;100.00;96536.72;15274791;19;20023;-49
2023/10/26 18:33:12;;;;;;;1.83;1.65;;;;;;;9.85;100.00;96535.28;15265866;19;20014;-50
2023/10/26 18:38:38;;;;;;;4.88;1.70;;;;;;;9.80;100.00;96527.00;15272327;19;20078;-51
2023/10/26 18:44:03;;;;;;;1.70;1.60;;;;;;;9.79;100.00;96527.19;15279944;19;20267;-51
2023/10/26 18:49:32;;;;;;;1.45;1.35;;;;;;;9.77;100.00;96524.72;15282228;19;20363;-51
2023/10/26 18:54:56;;;;;;;1.60;1.40;;;;;;;9.75;100.00;96513.31;15283053;19;20375;-50
2023/10/26 19:00:22;;;;;;;1.27;1.15;;;;;;;9.72;100.00;96524.47;15272936;19;20019;-50
2023/10/26 19:05:50;;;;;;;1.30;1.20;;;;;;;9.75;100.00;96534.03;15281201;19;20096;-50
2023/10/26 19:11:16;;;;;;;2.25;1.20;;;;;;;9.77;100.00;96532.78;15274534;19;20467;-52
2023/10/26 19:16:41;;;;;;;1.20;1.10;;;;;;;9.77;100.00;96519.34;15277629;19;20014;-49
2023/10/26 19:22:09;;;;;;;1.52;1.20;;;;;;;9.68;100.00;96510.63;15274637;19;20373;-52
2023/10/26 19:27:35;;;;;;;1.48;1.10;;;;;;;9.60;100.00;96526.94;15276841;19;20010;-49
2023/10/26 19:33:01;;;;;;;1.65;1.20;;;;;;;9.56;100.00;96531.06;15273260;19;20015;-50
2023/10/26 19:38:29;;;;;;;1.77;1.60;;;;;;;9.48;100.00;96529.38;15270989;19;20853;-48
2023/10/26 19:43:54;;;;;;;1.85;1.50;;;;;;;9.44;100.00;96520.06;15269347;19;20891;-49
2023/10/26 19:49:19;;;;;;;2.08;1.23;;;;;;;9.45;100.00;96537.00;15275712;19;20357;-53
2023/10/26 19:54:47;;;;;;;1.38;1.20;;;;;;;9.48;100.00;96534.75;15274984;19;20014;-49
2023/10/26 20:00:15;;;;;;;2.38;1.20;;;;;;;9.52;100.00;96532.50;15271463;19;20022;-51
2023/10/26 20:05:41;;;;;;;2.47;1.40;;;;;;;9.55;100.00;96541.00;15273209;19;20022;-49
2023/10/26 20:11:09;;;;;;;1.50;1.27;;;;;;;9.51;100.00;96515.53;15267537;19;20317;-54
2023/10/26 20:16:34;;;;;;;1.05;1.02;;;;;;;9.47;100.00;96511.56;15272179;19;20020;-50
2023/10/26 20:21:54;;;;;;;1.10;1.00;;;;;;;9.44;100.00;96528.13;15272699;19;20025;-49
2023/10/26 20:27:21;;;;;;;1.13;0.90;;;;;;;9.42;100.00;96514.06;15273688;19;20029;-52
2023/10/26 20:32:48;;;;;;;1.00;1.00;;;;;;;9.37;100.00;96508.44;15190866;19;20527;-51
2023/10/26 20:38:12;;;;;;;1.08;0.98;;;;;;;9.37;100.00;96495.84;15270840;19;20018;-49
2023/10/26 20:43:41;;;;;;;1.95;1.02;;;;;;;9.33;100.00;96493.78;15264131;19;20399;-51
2023/10/26 20:49:05;;;;;;;1.50;1.30;;;;;;;9.24;100.00;96496.63;15271129;19;20021;-50
2023/10/26 20:54:30;;;;;;;1.88;1.48;;;;;;;9.22;100.00;96501.38;15271785;19;20010;-53
2023/10/26 20:59:58;;;;;;;1.90;1.60;;;;;;;9.23;100.00;96502.19;15269533;19;20031;-48
2023/10/26 21:05:23;;;;;;;2.10;1.95;;;;;;;9.22;100.00;96492.47;15263755;19;20010;-49
2023/10/26 21:10:48;;;;;;;2.45;1.50;;;;;;;9.24;100.00;96501.16;15265228;19;20045;-53
2023/10/26 21:16:16;;;;;;;1.50;1.40;;;;;;;9.27;100.00;96502.63;15263650;19;20078;-48
2023/10/26 21:21:40;;;;;;;1.67;1.40;;;;;;;9.22;100.00;96501.38;15265996;19;20033;-50
2023/10/26 21:27:06;;;;;;;2.90;1.70;;;;;;;9.20;100.00;96500.75;15267068;19;20203;-50
2023/10/26 21:32:33;;;;;;;1.95;1.60;;;;;;;9.23;100.00;96494.94;15274287;19;20015;-52
2023/10/26 21:37:58;;;;;;;3.35;1.33;;;;;;;9.26;100.00;96488.38;15281624;19;20022;-49
2023/10/26 21:43:24;;;;;;;2.78;1.27;;;;;;;9.31;100.00;96491.25;15279418;19;20353;-48
2023/10/26 21:48:52;;;;;;;1.50;1.23;;;;;;;9.35;100.00;96486.34;15279220;19;20810;-49
2023/10/26 21:54:16;;;;;;;2.47;1.23;;;;;;;9.39;100.00;96482.19;15284283;19;20813;-50
2023/10/26 21:59:41;;;;;;;1.38;1.20;;;;;;;9.40;100.00;96468.59;15279923;19;20793;-51
2023/10/26 22:05:02;;;;;;;1.52;1.40;;;;;;;9.43;100.00;96475.41;15281633;19;20488;-50
2023/10/26 22:10:27;;;;;;;2.28;1.20;;;;;;;9.45;100.00;96476.03;15281743;19;20086;-50
2023/10/26 22:15:52;;;;;;;2.08;1.50;;;;;;;9.50;100.00;96476.25;15281569;19;20014;-51
2023/10/26 22:21:19;;;;;;;1.55;1.40;;;;;;;9.58;100.00;96475.22;15272752;19;20098;-51
2023/10/26 22:26:44;;;;;;;2.17;1.38;;;;;;;9.63;100.00;96469.25;15279237;19;20007;-55
2023/10/26 22:32:15;;;;;;;1.73;1.48;;;;;;;9.66;100.00;96461.59;15277739;19;20066;-51
2023/10/26 22:37:43;;;;;;;2.20;1.33;;;;;;;9.68;100.00;96462.22;15277903;19;20498;-53
2023/10/26 22:43:07;;;;;;;1.40;1.30;;;;;;;9.70;100.00;96451.28;15274167;19;20036;-49
2023/10/26 22:48:32;;;;;;;1.83;1.60;;;;;;;9.70;100.00;96451.28;15278435;19;20014;-52
2023/10/26 22:53:59;;;;;;;1.88;1.50;;;;;;;9.69;100.00;96433.50;15273297;19;20043;-54
2023/10/26 22:59:25;;;;;;;2.72;1.60;;;;;;;9.70;100.00;96435.16;15276393;19;20051;-55
2023/10/26 23:04:50;;;;;;;1.50;1.40;;;;;;;9.69;100.00;96434.31;15277071;19;20021;-53
2023/10/26 23:10:18;;;;;;;1.60;1.50;;;;;;;9.69;100.00;96433.50;15279207;19;20086;-50
2023/10/26 23:15:43;;;;;;;3.60;1.83;;;;;;;9.68;100.00;96424.59;15281779;19;20772;-52
2023/10/26 23:21:09;;;;;;;4.05;2.10;;;;;;;9.71;100.00;96426.03;15281268;19;20018;-50
2023/10/26 23:26:37;;;;;;;2.05;1.95;;;;;;;9.70;100.00;96427.91;15274075;19;20061;-52
2023/10/26 23:32:08;;;;;;;2.30;2.10;;;;;;;9.70;100.00;96430.59;15275056;19;20022;-51
2023/10/26 23:37:33;;;;;;;2.00;1.75;;;;;;;9.72;100.00;96419.63;15275535;19;20247;-50
2023/10/26 23:43:00;;;;;;;2.50;2.30;;;;;;;9.69;100.00;96420.88;15273730;19;20555;-49
2023/10/26 23:48:25;;;;;;;2.38;2.17;;;;;;;9.70;100.00;96410.94;15277645;19;20018;-51
2023/10/26 23:53:50;;;;;;;3.05;2.45;;;;;;;9.68;100.00;96402.25;15272231;19;20043;-50
2023/10/26 23:59:17;;;;;;;3.88;2.80;;;;;;;9.68;100.00;96395.00;15268211;19;20014;-51
